Billings Logan International Airport
KBIL : rendu visible

Aérodrome :











RETROUVEZ-NOUS SUR...

 
LOGIN :

S'inscrire | Disclaimer

   EN    FR    IT 

 









Légende :    VFR   VFR Marginal   IFR   IFR Intensif   IFR Très Intensif
Visi : 
Plafond : 
>= 8 km
>= 3000ft
5 à 8 km
1000 à 3000 ft
1500m à 5 km
500 à 1000 ft
800 à 1500m
200 à 500 ft
< 800m
< 200 ft
Symboles :   Orages  Brouillard  Fortes neiges  Fortes précipitations  Vent > 20 kt






- Altitude de l'aérodrome : 3652 ft
- Code IATA : BIL


KBIL - Billings Logan International

DERNIER METAR :
  • 170953Z 25009KT 10SM SCT230 02/M04 A3003 RMK AO2 SLP179 T00221039 $

METARs EXPIRÉS :
  • 170853Z 24010KT 10SM SCT230 02/M04 A3006 RMK AO2 SLP192 T00171039 58025 $
  • 170753Z 23011KT 10SM BKN230 01/M04 A3009 RMK AO2 SLP202 T00111039 $

TAF KBIL
Valide du 17 à 06h jusqu'au 18 à 06h UTC


170527Z 1706/1806 24011KT P6SM BKN200
FM170900 23017KT P6SM BKN200
FM171300 24018G25KT P6SM BKN120
FM171800 26020G30KT P6SM VCSH BKN070
FM180100 27019G28KT P6SM SCT070



MET'MAP, la Météo Aéronautique d'un coup d'oeil ! - Copyright ORBIFLY Décembre 2007 - Disclaimer

ORBIFLY MET'MAP TEAM :

Programmation & Développement : Alexandra Zaïnal
Conception & Développement : Baudouin d'Aumeries
Co-Programmation & Développement : Marc-Olivier Méhu
Soutien technique & logistique : Manuel Goepfert

Contact : metmap@orbifly.com




SOURCES & CREDITS :

   NOAA       Earth
Advisory